sensor_id;sensor_type;location;lat;lon;timestamp;temperature;humidity
41939;DHT22;23057;48.554;14.454;2022-08-26T00:00:01;15.80;99.90
41939;DHT22;23057;48.554;14.454;2022-08-26T00:02:33;15.80;99.90
41939;DHT22;23057;48.554;14.454;2022-08-26T00:05:03;15.80;99.90
41939;DHT22;23057;48.554;14.454;2022-08-26T00:07:35;15.80;99.90
41939;DHT22;23057;48.554;14.454;2022-08-26T00:10:06;15.80;99.90
41939;DHT22;23057;48.554;14.454;2022-08-26T00:12:37;15.80;99.90
41939;DHT22;23057;48.554;14.454;2022-08-26T00:15:10;15.70;99.90
41939;DHT22;23057;48.554;14.454;2022-08-26T00:17:45;15.70;99.90
41939;DHT22;23057;48.554;14.454;2022-08-26T00:20:19;15.60;99.90
41939;DHT22;23057;48.554;14.454;2022-08-26T00:23:00;15.60;99.90
41939;DHT22;23057;48.554;14.454;2022-08-26T00:25:32;15.60;99.90
41939;DHT22;23057;48.554;14.454;2022-08-26T00:28:03;15.60;99.90
41939;DHT22;23057;48.554;14.454;2022-08-26T00:30:36;15.50;99.90
41939;DHT22;23057;48.554;14.454;2022-08-26T00:33:07;15.50;99.90
41939;DHT22;23057;48.554;14.454;2022-08-26T00:35:38;15.50;99.90
41939;DHT22;23057;48.554;14.454;2022-08-26T00:38:10;15.50;99.90
41939;DHT22;23057;48.554;14.454;2022-08-26T00:40:45;15.50;99.90
41939;DHT22;23057;48.554;14.454;2022-08-26T00:43:22;15.40;99.90
41939;DHT22;23057;48.554;14.454;2022-08-26T00:46:00;15.50;99.90
41939;DHT22;23057;48.554;14.454;2022-08-26T00:48:41;15.50;99.90
41939;DHT22;23057;48.554;14.454;2022-08-26T00:51:19;15.50;99.90
41939;DHT22;23057;48.554;14.454;2022-08-26T00:53:55;15.40;99.90
41939;DHT22;23057;48.554;14.454;2022-08-26T00:56:34;15.40;99.90
41939;DHT22;23057;48.554;14.454;2022-08-26T00:59:13;15.40;99.90
41939;DHT22;23057;48.554;14.454;2022-08-26T01:01:47;15.40;99.90
41939;DHT22;23057;48.554;14.454;2022-08-26T01:04:19;15.40;99.90
41939;DHT22;23057;48.554;14.454;2022-08-26T01:06:53;15.40;99.90
41939;DHT22;23057;48.554;14.454;2022-08-26T01:09:24;15.40;99.90
41939;DHT22;23057;48.554;14.454;2022-08-26T01:11:56;15.30;99.90
41939;DHT22;23057;48.554;14.454;2022-08-26T01:14:35;15.30;99.90
41939;DHT22;23057;48.554;14.454;2022-08-26T01:17:07;15.30;99.90
41939;DHT22;23057;48.554;14.454;2022-08-26T01:19:42;15.30;99.90
41939;DHT22;23057;48.554;14.454;2022-08-26T01:22:20;15.30;99.90
41939;DHT22;23057;48.554;14.454;2022-08-26T01:25:16;15.30;99.90
41939;DHT22;23057;48.554;14.454;2022-08-26T01:27:50;15.30;99.90
41939;DHT22;23057;48.554;14.454;2022-08-26T01:30:25;15.20;99.90
41939;DHT22;23057;48.554;14.454;2022-08-26T01:32:58;15.20;99.90
41939;DHT22;23057;48.554;14.454;2022-08-26T01:35:35;15.10;99.90
41939;DHT22;23057;48.554;14.454;2022-08-26T01:38:07;15.20;99.90
41939;DHT22;23057;48.554;14.454;2022-08-26T01:40:40;15.10;99.90
41939;DHT22;23057;48.554;14.454;2022-08-26T01:43:22;15.10;99.90
41939;DHT22;23057;48.554;14.454;2022-08-26T01:45:58;15.10;99.90
41939;DHT22;23057;48.554;14.454;2022-08-26T01:48:31;15.10;99.90
41939;DHT22;23057;48.554;14.454;2022-08-26T01:51:04;15.10;99.90
41939;DHT22;23057;48.554;14.454;2022-08-26T01:53:39;15.00;99.90
41939;DHT22;23057;48.554;14.454;2022-08-26T01:56:12;15.00;99.90
41939;DHT22;23057;48.554;14.454;2022-08-26T01:58:46;15.00;99.90
41939;DHT22;23057;48.554;14.454;2022-08-26T02:01:22;15.00;99.90
41939;DHT22;23057;48.554;14.454;2022-08-26T02:06:39;15.00;99.90
41939;DHT22;23057;48.554;14.454;2022-08-26T02:09:11;15.00;99.90
41939;DHT22;23057;48.554;14.454;2022-08-26T02:11:44;15.00;99.90
41939;DHT22;23057;48.554;14.454;2022-08-26T02:14:16;14.90;99.90
41939;DHT22;23057;48.554;14.454;2022-08-26T02:16:55;14.90;99.90
41939;DHT22;23057;48.554;14.454;2022-08-26T02:19:28;14.90;99.90
41939;DHT22;23057;48.554;14.454;2022-08-26T02:22:04;14.80;99.90
41939;DHT22;23057;48.554;14.454;2022-08-26T02:24:48;14.80;99.90
41939;DHT22;23057;48.554;14.454;2022-08-26T02:27:25;14.80;99.90
41939;DHT22;23057;48.554;14.454;2022-08-26T02:30:08;14.70;99.90
41939;DHT22;23057;48.554;14.454;2022-08-26T02:32:47;14.70;99.90
41939;DHT22;23057;48.554;14.454;2022-08-26T02:35:19;14.80;99.90
41939;DHT22;23057;48.554;14.454;2022-08-26T02:37:52;14.80;99.90
41939;DHT22;23057;48.554;14.454;2022-08-26T02:40:25;14.80;99.90
41939;DHT22;23057;48.554;14.454;2022-08-26T02:43:00;14.80;99.90
41939;DHT22;23057;48.554;14.454;2022-08-26T02:45:32;14.90;99.90
41939;DHT22;23057;48.554;14.454;2022-08-26T02:48:11;14.80;99.90
41939;DHT22;23057;48.554;14.454;2022-08-26T02:50:45;14.80;99.90
41939;DHT22;23057;48.554;14.454;2022-08-26T02:53:17;14.80;99.90
41939;DHT22;23057;48.554;14.454;2022-08-26T02:55:49;14.90;99.90
41939;DHT22;23057;48.554;14.454;2022-08-26T02:58:20;14.90;99.90
41939;DHT22;23057;48.554;14.454;2022-08-26T03:00:51;14.90;99.90
41939;DHT22;23057;48.554;14.454;2022-08-26T03:03:22;14.90;99.90
41939;DHT22;23057;48.554;14.454;2022-08-26T03:05:53;14.90;99.90
41939;DHT22;23057;48.554;14.454;2022-08-26T03:08:24;14.90;99.90
41939;DHT22;23057;48.554;14.454;2022-08-26T03:10:55;14.90;99.90
41939;DHT22;23057;48.554;14.454;2022-08-26T03:13:26;15.00;99.90
41939;DHT22;23057;48.554;14.454;2022-08-26T03:15:59;15.00;99.90
41939;DHT22;23057;48.554;14.454;2022-08-26T03:18:31;15.10;99.90
41939;DHT22;23057;48.554;14.454;2022-08-26T03:21:09;15.10;99.90
41939;DHT22;23057;48.554;14.454;2022-08-26T03:23:44;15.10;99.90
41939;DHT22;23057;48.554;14.454;2022-08-26T03:26:15;15.10;99.90
41939;DHT22;23057;48.554;14.454;2022-08-26T03:28:46;15.10;99.90
41939;DHT22;23057;48.554;14.454;2022-08-26T03:31:35;15.10;99.90
41939;DHT22;23057;48.554;14.454;2022-08-26T03:34:06;15.10;99.90
41939;DHT22;23057;48.554;14.454;2022-08-26T03:36:37;15.10;99.90
41939;DHT22;23057;48.554;14.454;2022-08-26T03:39:09;15.10;99.90
41939;DHT22;23057;48.554;14.454;2022-08-26T03:41:41;15.20;99.90
41939;DHT22;23057;48.554;14.454;2022-08-26T03:44:14;15.10;99.90
41939;DHT22;23057;48.554;14.454;2022-08-26T03:46:45;15.00;99.90
41939;DHT22;23057;48.554;14.454;2022-08-26T03:49:15;15.00;99.90
41939;DHT22;23057;48.554;14.454;2022-08-26T03:51:46;15.10;99.90
41939;DHT22;23057;48.554;14.454;2022-08-26T03:54:17;15.20;99.90
41939;DHT22;23057;48.554;14.454;2022-08-26T03:56:48;15.20;99.90
41939;DHT22;23057;48.554;14.454;2022-08-26T03:59:19;15.30;99.90
41939;DHT22;23057;48.554;14.454;2022-08-26T04:01:50;15.30;99.90
41939;DHT22;23057;48.554;14.454;2022-08-26T04:04:20;15.30;99.90
41939;DHT22;23057;48.554;14.454;2022-08-26T04:06:54;15.30;99.90
41939;DHT22;23057;48.554;14.454;2022-08-26T04:09:27;15.30;99.90
41939;DHT22;23057;48.554;14.454;2022-08-26T04:11:58;15.30;99.90
41939;DHT22;23057;48.554;14.454;2022-08-26T04:14:29;15.30;99.90
41939;DHT22;23057;48.554;14.454;2022-08-26T04:17:02;15.20;99.90
41939;DHT22;23057;48.554;14.454;2022-08-26T04:19:34;15.30;99.90
41939;DHT22;23057;48.554;14.454;2022-08-26T04:22:05;15.30;99.90
41939;DHT22;23057;48.554;14.454;2022-08-26T04:24:37;15.30;99.90
41939;DHT22;23057;48.554;14.454;2022-08-26T04:27:08;15.30;99.90
41939;DHT22;23057;48.554;14.454;2022-08-26T04:29:39;15.30;99.90
41939;DHT22;23057;48.554;14.454;2022-08-26T04:32:10;15.30;99.90
41939;DHT22;23057;48.554;14.454;2022-08-26T04:34:42;15.30;99.90
41939;DHT22;23057;48.554;14.454;2022-08-26T04:37:13;15.40;99.90
41939;DHT22;23057;48.554;14.454;2022-08-26T04:39:44;15.40;99.90
41939;DHT22;23057;48.554;14.454;2022-08-26T04:42:15;15.50;99.90
41939;DHT22;23057;48.554;14.454;2022-08-26T04:44:46;15.50;99.90
41939;DHT22;23057;48.554;14.454;2022-08-26T04:47:16;15.60;99.90
41939;DHT22;23057;48.554;14.454;2022-08-26T04:49:47;15.70;99.90
41939;DHT22;23057;48.554;14.454;2022-08-26T04:52:18;15.80;99.90
41939;DHT22;23057;48.554;14.454;2022-08-26T04:54:49;15.90;99.90
41939;DHT22;23057;48.554;14.454;2022-08-26T04:57:19;16.20;99.90
41939;DHT22;23057;48.554;14.454;2022-08-26T04:59:52;16.30;99.90
41939;DHT22;23057;48.554;14.454;2022-08-26T05:02:23;16.30;99.90
41939;DHT22;23057;48.554;14.454;2022-08-26T05:04:54;16.40;99.90
41939;DHT22;23057;48.554;14.454;2022-08-26T05:07:24;16.40;99.90
41939;DHT22;23057;48.554;14.454;2022-08-26T05:09:55;16.40;99.90
41939;DHT22;23057;48.554;14.454;2022-08-26T05:12:29;16.40;99.90
41939;DHT22;23057;48.554;14.454;2022-08-26T05:15:01;16.20;99.90
41939;DHT22;23057;48.554;14.454;2022-08-26T05:17:31;16.20;99.90
41939;DHT22;23057;48.554;14.454;2022-08-26T05:20:03;16.20;99.90
41939;DHT22;23057;48.554;14.454;2022-08-26T05:22:35;16.20;99.90
41939;DHT22;23057;48.554;14.454;2022-08-26T05:25:06;16.20;99.90
41939;DHT22;23057;48.554;14.454;2022-08-26T05:27:37;16.20;99.90
41939;DHT22;23057;48.554;14.454;2022-08-26T05:30:08;16.20;99.90
41939;DHT22;23057;48.554;14.454;2022-08-26T05:32:39;16.30;99.90
41939;DHT22;23057;48.554;14.454;2022-08-26T05:35:10;16.30;99.90
41939;DHT22;23057;48.554;14.454;2022-08-26T05:37:41;16.40;99.90
41939;DHT22;23057;48.554;14.454;2022-08-26T05:40:13;16.40;99.90
41939;DHT22;23057;48.554;14.454;2022-08-26T05:42:45;16.50;99.90
41939;DHT22;23057;48.554;14.454;2022-08-26T05:45:16;16.50;99.90
41939;DHT22;23057;48.554;14.454;2022-08-26T05:47:49;16.60;99.90
41939;DHT22;23057;48.554;14.454;2022-08-26T05:50:20;16.70;99.90
41939;DHT22;23057;48.554;14.454;2022-08-26T05:52:52;16.80;99.90
41939;DHT22;23057;48.554;14.454;2022-08-26T05:55:23;16.80;99.90
41939;DHT22;23057;48.554;14.454;2022-08-26T05:57:53;16.80;99.90
41939;DHT22;23057;48.554;14.454;2022-08-26T06:00:24;16.80;99.90
41939;DHT22;23057;48.554;14.454;2022-08-26T06:02:55;16.80;99.90
41939;DHT22;23057;48.554;14.454;2022-08-26T06:05:26;16.80;99.90
41939;DHT22;23057;48.554;14.454;2022-08-26T06:07:57;16.90;99.90
41939;DHT22;23057;48.554;14.454;2022-08-26T06:10:53;17.00;99.90
41939;DHT22;23057;48.554;14.454;2022-08-26T06:13:29;17.10;99.90
41939;DHT22;23057;48.554;14.454;2022-08-26T06:16:01;17.20;99.90
41939;DHT22;23057;48.554;14.454;2022-08-26T06:18:39;17.30;99.90
41939;DHT22;23057;48.554;14.454;2022-08-26T06:23:56;17.50;99.90
41939;DHT22;23057;48.554;14.454;2022-08-26T06:26:50;17.80;99.90
41939;DHT22;23057;48.554;14.454;2022-08-26T06:29:28;18.00;99.90
41939;DHT22;23057;48.554;14.454;2022-08-26T06:32:04;18.30;99.90
41939;DHT22;23057;48.554;14.454;2022-08-26T06:34:36;18.40;99.90
41939;DHT22;23057;48.554;14.454;2022-08-26T06:37:07;18.70;99.90
41939;DHT22;23057;48.554;14.454;2022-08-26T06:39:38;18.90;99.90
41939;DHT22;23057;48.554;14.454;2022-08-26T06:42:09;19.20;99.90
41939;DHT22;23057;48.554;14.454;2022-08-26T06:44:40;19.30;99.90
41939;DHT22;23057;48.554;14.454;2022-08-26T06:47:10;19.80;99.90
41939;DHT22;23057;48.554;14.454;2022-08-26T06:49:41;20.20;99.90
41939;DHT22;23057;48.554;14.454;2022-08-26T06:52:12;20.20;99.90
41939;DHT22;23057;48.554;14.454;2022-08-26T06:54:43;20.10;99.90
41939;DHT22;23057;48.554;14.454;2022-08-26T06:57:14;20.10;99.90
41939;DHT22;23057;48.554;14.454;2022-08-26T06:59:44;20.30;99.90
41939;DHT22;23057;48.554;14.454;2022-08-26T07:02:15;20.30;99.90
41939;DHT22;23057;48.554;14.454;2022-08-26T07:04:46;20.50;99.90
41939;DHT22;23057;48.554;14.454;2022-08-26T07:07:17;21.40;99.90
41939;DHT22;23057;48.554;14.454;2022-08-26T07:09:48;21.50;99.90
41939;DHT22;23057;48.554;14.454;2022-08-26T07:12:18;21.40;99.90
41939;DHT22;23057;48.554;14.454;2022-08-26T07:14:49;21.70;1.00
41939;DHT22;23057;48.554;14.454;2022-08-26T07:17:21;21.80;99.90
41939;DHT22;23057;48.554;14.454;2022-08-26T07:19:51;21.60;99.90
41939;DHT22;23057;48.554;14.454;2022-08-26T07:22:22;21.60;99.90
41939;DHT22;23057;48.554;14.454;2022-08-26T07:24:53;21.80;99.90
41939;DHT22;23057;48.554;14.454;2022-08-26T07:27:24;22.00;99.90
41939;DHT22;23057;48.554;14.454;2022-08-26T07:29:55;22.20;99.90
41939;DHT22;23057;48.554;14.454;2022-08-26T07:32:26;22.70;92.90
41939;DHT22;23057;48.554;14.454;2022-08-26T07:34:57;23.20;1.00
41939;DHT22;23057;48.554;14.454;2022-08-26T07:37:28;23.10;99.90
41939;DHT22;23057;48.554;14.454;2022-08-26T07:39:59;23.30;99.90
41939;DHT22;23057;48.554;14.454;2022-08-26T07:42:30;23.80;99.90
41939;DHT22;23057;48.554;14.454;2022-08-26T07:45:01;24.00;85.70
41939;DHT22;23057;48.554;14.454;2022-08-26T07:47:32;23.80;2.00
41939;DHT22;23057;48.554;14.454;2022-08-26T07:50:03;24.00;59.70
41939;DHT22;23057;48.554;14.454;2022-08-26T07:52:34;24.10;1.00
41939;DHT22;23057;48.554;14.454;2022-08-26T07:55:07;24.30;1.00
41939;DHT22;23057;48.554;14.454;2022-08-26T07:57:39;24.50;1.00
41939;DHT22;23057;48.554;14.454;2022-08-26T08:00:12;24.60;99.90
41939;DHT22;23057;48.554;14.454;2022-08-26T08:02:45;24.40;99.90
41939;DHT22;23057;48.554;14.454;2022-08-26T08:05:18;24.90;99.90
41939;DHT22;23057;48.554;14.454;2022-08-26T08:07:52;24.90;99.90
41939;DHT22;23057;48.554;14.454;2022-08-26T08:10:23;24.90;99.90
41939;DHT22;23057;48.554;14.454;2022-08-26T08:12:56;25.10;99.90
41939;DHT22;23057;48.554;14.454;2022-08-26T08:15:28;25.10;43.00
41939;DHT22;23057;48.554;14.454;2022-08-26T08:18:01;25.30;29.30
41939;DHT22;23057;48.554;14.454;2022-08-26T08:20:33;25.40;99.90
41939;DHT22;23057;48.554;14.454;2022-08-26T08:23:04;25.70;99.90
41939;DHT22;23057;48.554;14.454;2022-08-26T08:25:35;25.90;1.00
41939;DHT22;23057;48.554;14.454;2022-08-26T08:28:06;25.70;1.00
41939;DHT22;23057;48.554;14.454;2022-08-26T08:30:37;25.80;1.00
41939;DHT22;23057;48.554;14.454;2022-08-26T08:33:10;25.20;1.00
41939;DHT22;23057;48.554;14.454;2022-08-26T08:35:41;25.20;76.70
41939;DHT22;23057;48.554;14.454;2022-08-26T08:38:12;25.40;91.10
41939;DHT22;23057;48.554;14.454;2022-08-26T08:40:44;25.60;44.10
41939;DHT22;23057;48.554;14.454;2022-08-26T08:43:31;25.70;1.00
41939;DHT22;23057;48.554;14.454;2022-08-26T08:46:13;25.70;4.90
41939;DHT22;23057;48.554;14.454;2022-08-26T08:48:47;25.90;1.00
41939;DHT22;23057;48.554;14.454;2022-08-26T08:51:34;26.70;1.00
41939;DHT22;23057;48.554;14.454;2022-08-26T08:54:41;27.10;1.00
41939;DHT22;23057;48.554;14.454;2022-08-26T08:57:24;27.20;1.00
41939;DHT22;23057;48.554;14.454;2022-08-26T09:00:10;27.60;99.90
41939;DHT22;23057;48.554;14.454;2022-08-26T09:03:06;27.20;1.00
41939;DHT22;23057;48.554;14.454;2022-08-26T09:06:07;27.40;99.90
41939;DHT22;23057;48.554;14.454;2022-08-26T09:08:47;26.90;99.90
41939;DHT22;23057;48.554;14.454;2022-08-26T09:11:20;27.10;1.00
41939;DHT22;23057;48.554;14.454;2022-08-26T09:13:52;27.40;99.90
41939;DHT22;23057;48.554;14.454;2022-08-26T09:16:35;27.40;1.00
41939;DHT22;23057;48.554;14.454;2022-08-26T09:19:23;27.40;1.00
41939;DHT22;23057;48.554;14.454;2022-08-26T09:22:27;27.40;1.00
41939;DHT22;23057;48.554;14.454;2022-08-26T09:25:05;27.30;1.00
41939;DHT22;23057;48.554;14.454;2022-08-26T09:27:41;28.00;99.90
41939;DHT22;23057;48.554;14.454;2022-08-26T09:33:03;28.00;99.90
41939;DHT22;23057;48.554;14.454;2022-08-26T09:35:44;27.80;99.90
41939;DHT22;23057;48.554;14.454;2022-08-26T09:38:21;27.80;99.90
41939;DHT22;23057;48.554;14.454;2022-08-26T09:40:59;27.80;99.90
41939;DHT22;23057;48.554;14.454;2022-08-26T09:43:36;27.90;1.00
41939;DHT22;23057;48.554;14.454;2022-08-26T09:46:17;28.40;99.90
41939;DHT22;23057;48.554;14.454;2022-08-26T09:48:57;28.80;99.90
41939;DHT22;23057;48.554;14.454;2022-08-26T09:52:15;28.80;99.90
41939;DHT22;23057;48.554;14.454;2022-08-26T09:55:03;28.70;99.90
41939;DHT22;23057;48.554;14.454;2022-08-26T09:57:53;28.00;99.90
41939;DHT22;23057;48.554;14.454;2022-08-26T10:00:36;27.90;99.90
41939;DHT22;23057;48.554;14.454;2022-08-26T10:03:26;27.90;99.90
41939;DHT22;23057;48.554;14.454;2022-08-26T10:06:06;28.20;99.90
41939;DHT22;23057;48.554;14.454;2022-08-26T10:08:50;27.40;99.90
41939;DHT22;23057;48.554;14.454;2022-08-26T10:11:37;26.80;1.00
41939;DHT22;23057;48.554;14.454;2022-08-26T10:17:24;26.30;1.00
41939;DHT22;23057;48.554;14.454;2022-08-26T10:20:13;26.80;1.00
41939;DHT22;23057;48.554;14.454;2022-08-26T10:22:53;27.60;99.90
41939;DHT22;23057;48.554;14.454;2022-08-26T10:25:52;27.30;99.90
41939;DHT22;23057;48.554;14.454;2022-08-26T10:28:32;27.00;99.90
41939;DHT22;23057;48.554;14.454;2022-08-26T10:31:57;26.90;99.90
41939;DHT22;23057;48.554;14.454;2022-08-26T10:34:16;27.20;99.90
41939;DHT22;23057;48.554;14.454;2022-08-26T10:36:52;27.10;99.90
41939;DHT22;23057;48.554;14.454;2022-08-26T10:39:40;27.70;1.00
41939;DHT22;23057;48.554;14.454;2022-08-26T10:42:18;26.40;1.00
41939;DHT22;23057;48.554;14.454;2022-08-26T10:45:19;26.20;1.00
41939;DHT22;23057;48.554;14.454;2022-08-26T10:48:04;25.60;1.00
41939;DHT22;23057;48.554;14.454;2022-08-26T10:50:42;25.90;1.00
41939;DHT22;23057;48.554;14.454;2022-08-26T10:53:22;26.20;1.00
41939;DHT22;23057;48.554;14.454;2022-08-26T10:56:28;26.90;1.00
41939;DHT22;23057;48.554;14.454;2022-08-26T10:59:21;26.90;1.00
41939;DHT22;23057;48.554;14.454;2022-08-26T11:05:17;27.00;1.00
41939;DHT22;23057;48.554;14.454;2022-08-26T11:07:54;27.20;1.00
41939;DHT22;23057;48.554;14.454;2022-08-26T11:16:40;26.60;1.00
41939;DHT22;23057;48.554;14.454;2022-08-26T11:25:25;27.00;1.00
41939;DHT22;23057;48.554;14.454;2022-08-26T11:27:57;26.90;1.00
41939;DHT22;23057;48.554;14.454;2022-08-26T11:30:39;26.80;99.90
41939;DHT22;23057;48.554;14.454;2022-08-26T11:33:43;26.40;99.90
41939;DHT22;23057;48.554;14.454;2022-08-26T11:42:14;27.50;99.90
41939;DHT22;23057;48.554;14.454;2022-08-26T11:44:58;27.60;99.90
41939;DHT22;23057;48.554;14.454;2022-08-26T11:47:43;27.70;99.90
41939;DHT22;23057;48.554;14.454;2022-08-26T11:50:26;27.80;99.90
41939;DHT22;23057;48.554;14.454;2022-08-26T11:52:58;27.50;99.90
41939;DHT22;23057;48.554;14.454;2022-08-26T11:55:35;27.30;99.90
41939;DHT22;23057;48.554;14.454;2022-08-26T11:58:12;26.50;1.00
41939;DHT22;23057;48.554;14.454;2022-08-26T12:03:36;27.10;99.90
41939;DHT22;23057;48.554;14.454;2022-08-26T12:06:25;26.80;1.00
41939;DHT22;23057;48.554;14.454;2022-08-26T12:09:04;26.50;1.00
41939;DHT22;23057;48.554;14.454;2022-08-26T12:11:42;26.60;1.00
41939;DHT22;23057;48.554;14.454;2022-08-26T12:14:20;26.10;1.00
41939;DHT22;23057;48.554;14.454;2022-08-26T12:16:54;26.40;99.90
41939;DHT22;23057;48.554;14.454;2022-08-26T12:19:43;27.00;99.90
41939;DHT22;23057;48.554;14.454;2022-08-26T12:27:29;27.50;99.90
41939;DHT22;23057;48.554;14.454;2022-08-26T12:30:20;27.80;99.90
41939;DHT22;23057;48.554;14.454;2022-08-26T12:33:04;27.80;99.90
41939;DHT22;23057;48.554;14.454;2022-08-26T12:35:41;27.70;99.90
41939;DHT22;23057;48.554;14.454;2022-08-26T12:38:12;28.00;99.90
41939;DHT22;23057;48.554;14.454;2022-08-26T12:40:44;27.80;99.90
41939;DHT22;23057;48.554;14.454;2022-08-26T12:46:15;27.10;1.00
41939;DHT22;23057;48.554;14.454;2022-08-26T12:48:55;27.20;99.90
41939;DHT22;23057;48.554;14.454;2022-08-26T12:51:31;27.60;99.90
41939;DHT22;23057;48.554;14.454;2022-08-26T12:54:03;28.10;99.90
41939;DHT22;23057;48.554;14.454;2022-08-26T12:56:36;28.40;99.90
41939;DHT22;23057;48.554;14.454;2022-08-26T12:59:24;28.30;99.90
41939;DHT22;23057;48.554;14.454;2022-08-26T13:01:55;27.80;99.90
41939;DHT22;23057;48.554;14.454;2022-08-26T13:07:13;26.80;99.90
41939;DHT22;23057;48.554;14.454;2022-08-26T13:09:57;27.10;99.90
41939;DHT22;23057;48.554;14.454;2022-08-26T13:12:32;27.60;99.90
41939;DHT22;23057;48.554;14.454;2022-08-26T13:15:06;27.80;99.90
41939;DHT22;23057;48.554;14.454;2022-08-26T13:17:37;27.90;99.90
41939;DHT22;23057;48.554;14.454;2022-08-26T13:20:08;27.90;99.90
41939;DHT22;23057;48.554;14.454;2022-08-26T13:22:39;27.80;99.90
41939;DHT22;23057;48.554;14.454;2022-08-26T13:25:10;27.90;99.90
41939;DHT22;23057;48.554;14.454;2022-08-26T13:27:41;27.70;99.90
41939;DHT22;23057;48.554;14.454;2022-08-26T13:30:12;27.90;99.90
41939;DHT22;23057;48.554;14.454;2022-08-26T13:32:43;27.80;99.90
41939;DHT22;23057;48.554;14.454;2022-08-26T13:35:14;27.60;99.90
41939;DHT22;23057;48.554;14.454;2022-08-26T13:37:44;27.80;99.90
41939;DHT22;23057;48.554;14.454;2022-08-26T13:40:15;27.70;99.90
41939;DHT22;23057;48.554;14.454;2022-08-26T13:42:46;27.60;99.90
41939;DHT22;23057;48.554;14.454;2022-08-26T13:45:17;27.90;99.90
41939;DHT22;23057;48.554;14.454;2022-08-26T13:47:48;28.10;99.90
41939;DHT22;23057;48.554;14.454;2022-08-26T13:50:19;27.90;99.90
41939;DHT22;23057;48.554;14.454;2022-08-26T13:52:49;27.80;99.90
41939;DHT22;23057;48.554;14.454;2022-08-26T13:55:20;28.00;99.90
41939;DHT22;23057;48.554;14.454;2022-08-26T13:57:52;27.90;99.90
41939;DHT22;23057;48.554;14.454;2022-08-26T14:00:24;27.90;99.90
41939;DHT22;23057;48.554;14.454;2022-08-26T14:02:54;28.00;99.90
41939;DHT22;23057;48.554;14.454;2022-08-26T14:05:28;28.10;99.90
41939;DHT22;23057;48.554;14.454;2022-08-26T14:07:59;28.20;99.90
41939;DHT22;23057;48.554;14.454;2022-08-26T14:10:30;28.10;99.90
41939;DHT22;23057;48.554;14.454;2022-08-26T14:13:02;28.00;99.90
41939;DHT22;23057;48.554;14.454;2022-08-26T14:15:34;27.80;99.90
41939;DHT22;23057;48.554;14.454;2022-08-26T14:18:08;27.70;99.90
41939;DHT22;23057;48.554;14.454;2022-08-26T14:20:47;27.80;99.90
41939;DHT22;23057;48.554;14.454;2022-08-26T14:23:19;27.90;99.90
41939;DHT22;23057;48.554;14.454;2022-08-26T14:25:51;27.90;99.90
41939;DHT22;23057;48.554;14.454;2022-08-26T14:28:22;27.90;99.90
41939;DHT22;23057;48.554;14.454;2022-08-26T14:30:54;27.70;99.90
41939;DHT22;23057;48.554;14.454;2022-08-26T14:33:27;27.80;99.90
41939;DHT22;23057;48.554;14.454;2022-08-26T14:36:02;27.70;99.90
41939;DHT22;23057;48.554;14.454;2022-08-26T14:38:53;27.40;99.90
41939;DHT22;23057;48.554;14.454;2022-08-26T14:41:26;27.10;99.90
41939;DHT22;23057;48.554;14.454;2022-08-26T14:44:01;27.30;99.90
41939;DHT22;23057;48.554;14.454;2022-08-26T14:46:44;27.40;99.90
41939;DHT22;23057;48.554;14.454;2022-08-26T14:49:20;27.20;99.90
41939;DHT22;23057;48.554;14.454;2022-08-26T14:51:53;27.30;99.90
41939;DHT22;23057;48.554;14.454;2022-08-26T14:54:24;27.30;99.90
41939;DHT22;23057;48.554;14.454;2022-08-26T14:56:56;27.20;99.90
41939;DHT22;23057;48.554;14.454;2022-08-26T14:59:36;27.20;99.90
41939;DHT22;23057;48.554;14.454;2022-08-26T15:02:11;27.30;99.90
41939;DHT22;23057;48.554;14.454;2022-08-26T15:04:44;27.40;99.90
41939;DHT22;23057;48.554;14.454;2022-08-26T15:07:15;27.20;99.90
41939;DHT22;23057;48.554;14.454;2022-08-26T15:09:45;27.20;99.90
41939;DHT22;23057;48.554;14.454;2022-08-26T15:12:16;27.30;99.90
41939;DHT22;23057;48.554;14.454;2022-08-26T15:14:47;27.30;99.90
41939;DHT22;23057;48.554;14.454;2022-08-26T15:17:18;27.30;99.90
41939;DHT22;23057;48.554;14.454;2022-08-26T15:19:49;27.40;99.90
41939;DHT22;23057;48.554;14.454;2022-08-26T15:22:20;27.20;99.90
41939;DHT22;23057;48.554;14.454;2022-08-26T15:24:51;27.10;99.90
41939;DHT22;23057;48.554;14.454;2022-08-26T15:27:22;27.10;99.90
41939;DHT22;23057;48.554;14.454;2022-08-26T15:29:53;27.10;99.90
41939;DHT22;23057;48.554;14.454;2022-08-26T15:32:24;27.10;99.90
41939;DHT22;23057;48.554;14.454;2022-08-26T15:34:55;27.00;99.90
41939;DHT22;23057;48.554;14.454;2022-08-26T15:37:26;27.10;99.90
41939;DHT22;23057;48.554;14.454;2022-08-26T15:39:57;27.10;99.90
41939;DHT22;23057;48.554;14.454;2022-08-26T15:42:27;27.00;99.90
41939;DHT22;23057;48.554;14.454;2022-08-26T15:44:58;27.00;99.90
41939;DHT22;23057;48.554;14.454;2022-08-26T15:47:29;27.00;99.90
41939;DHT22;23057;48.554;14.454;2022-08-26T15:50:00;26.90;99.90
41939;DHT22;23057;48.554;14.454;2022-08-26T15:52:31;26.80;99.90
41939;DHT22;23057;48.554;14.454;2022-08-26T15:55:02;26.80;99.90
41939;DHT22;23057;48.554;14.454;2022-08-26T15:57:33;26.80;99.90
41939;DHT22;23057;48.554;14.454;2022-08-26T16:00:04;26.70;99.90
41939;DHT22;23057;48.554;14.454;2022-08-26T16:02:36;26.80;99.90
41939;DHT22;23057;48.554;14.454;2022-08-26T16:05:07;26.70;99.90
41939;DHT22;23057;48.554;14.454;2022-08-26T16:07:38;26.50;99.90
41939;DHT22;23057;48.554;14.454;2022-08-26T16:10:09;26.50;99.90
41939;DHT22;23057;48.554;14.454;2022-08-26T16:12:40;26.40;99.90
41939;DHT22;23057;48.554;14.454;2022-08-26T16:15:11;26.40;99.90
41939;DHT22;23057;48.554;14.454;2022-08-26T16:17:42;26.30;99.90
41939;DHT22;23057;48.554;14.454;2022-08-26T16:20:13;26.20;99.90
41939;DHT22;23057;48.554;14.454;2022-08-26T16:22:44;26.00;99.90
41939;DHT22;23057;48.554;14.454;2022-08-26T16:25:15;26.00;99.90
41939;DHT22;23057;48.554;14.454;2022-08-26T16:27:46;25.90;99.90
41939;DHT22;23057;48.554;14.454;2022-08-26T16:30:17;25.80;99.90
41939;DHT22;23057;48.554;14.454;2022-08-26T16:32:50;25.70;99.90
41939;DHT22;23057;48.554;14.454;2022-08-26T16:35:21;25.40;99.90
41939;DHT22;23057;48.554;14.454;2022-08-26T16:37:52;25.40;1.00
41939;DHT22;23057;48.554;14.454;2022-08-26T16:40:25;25.20;1.00
41939;DHT22;23057;48.554;14.454;2022-08-26T16:42:56;25.10;1.00
41939;DHT22;23057;48.554;14.454;2022-08-26T16:45:27;25.00;99.90
41939;DHT22;23057;48.554;14.454;2022-08-26T16:47:58;24.90;99.90
41939;DHT22;23057;48.554;14.454;2022-08-26T16:50:29;24.90;1.00